Etusivu
METAR-TAF:

METAR-TAF

Lentoasemat :

Riian kansainvälinen lentoasema

Riika, Latvia

Leveyspiiri: 56-55N, Pituuspiiri: 023-58E, korkeus merenpinnasta: 10 m

Tämänhetkinen sää

Tämä raportti tehtiin 21 minuuttia sitten, kello 21.20 UTC
Tuuli 3 kn etelästä
Lämpötila 8°C
Kosteus 93%
Ilmanpaine 1022 hPa
Näkyvyys 10 km tai enemmän
ei pilviä alle 1500 m:ssä eikä cumulonimbus-pilviä

METAR: EVRA 162120Z 17003KT CAVOK 08/07 Q1022 R18/090095 NOSIG

Aika: 00:41 (21:41 UTC)

Sääennuste

Tämä raportti tehtiin 1 tunti ja 40 minuuttia sitten, kello 20.01 UTC
Ennuste voimassa 16. päivästä klo 21 UTC - 17. päivään klo 21 UTC
Tuuli 6 kn etelästä
Näkyvyys 10 km tai enemmän
ei pilviä alle 1500 m:ssä eikä cumulonimbus-pilviä
Ajoittain
16. päivästä klo 23 UTC - 17. päivään klo 06 UTC
Näkyvyys: 0600 m
Hajonneita pilviä 100 ft:n korkeudessa
sumua

TAF: EVRA 162001Z 1621/1721 17006KT CAVOK TEMPO 1623/1706 0600 FG BKN001

Säähavainnot ja -ennusteet yli 4000 lentoasemalta (METAR- ja TAF-raportit).

Käytössä olevat sääasemat on merkitty karttaan keltaisilla ja punaisilla pisteillä.

Aseta hiiri pisteen päälle nähdäksesi sääaseman nimen.

Klikkaa sitten nähdäksesi säähavainnot ja -ennusteet.

Kartan vaihtaminen: klikkaa mustalla rastilla varustettuja vihreitä pisteitä, niin voit zoomata sisään; viivalla varustettua vihreää pistettä, niin voit zoomata ulos tai vihreitä nuolia, niin pääset viereisille kartoille.


METAR-TAF: